Time;durP1;ratioP1;P1;durP2;ratioP2;P2;SDS_P1;SDS_P2;PMS_P1;PMS_P2;Temp;Humidity;BMP_temperature;BMP_pressure;BME280_temperature;BME280_humidity;BME280_pressure;Samples;Min_cycle;Max_cycle;Signal;HPM_P1;HPM_P2
2023/02/15 00:00:13;;;;;;;62.30;35.00;;;4.10;99.90;;;;;;5097907;28;20427;-85
2023/02/15 00:02:39;;;;;;;64.20;34.97;;;4.10;99.90;;;;;;5115915;28;20196;-81
2023/02/15 00:05:06;;;;;;;61.55;35.30;;;4.00;99.90;;;;;;5097843;28;20176;-84
2023/02/15 00:07:32;;;;;;;66.22;35.38;;;4.00;99.90;;;;;;5116414;28;20203;-81
2023/02/15 00:09:58;;;;;;;70.90;37.23;;;4.00;99.90;;;;;;5097788;28;20215;-85
2023/02/15 00:12:23;;;;;;;73.73;36.80;;;4.00;99.90;;;;;;5115755;28;20435;-85
2023/02/15 00:14:49;;;;;;;66.67;37.83;;;4.00;99.90;;;;;;5094278;28;20468;-85
2023/02/15 00:17:15;;;;;;;66.30;35.80;;;4.00;99.90;;;;;;5094020;28;20425;-85
2023/02/15 00:19:41;;;;;;;67.80;36.37;;;4.00;99.90;;;;;;5095442;28;20540;-82
2023/02/15 00:22:06;;;;;;;68.70;36.00;;;3.90;99.90;;;;;;5093969;28;20246;-85
2023/02/15 00:24:32;;;;;;;68.83;35.87;;;3.90;99.90;;;;;;5095146;28;20173;-85
2023/02/15 00:26:58;;;;;;;64.20;37.87;;;3.90;99.90;;;;;;5094095;28;20173;-82
2023/02/15 00:29:24;;;;;;;66.37;37.83;;;3.80;99.90;;;;;;5095036;28;20472;-82
2023/02/15 00:31:50;;;;;;;67.60;34.80;;;3.80;99.90;;;;;;5093757;28;20179;-82
2023/02/15 00:34:17;;;;;;;73.18;37.55;;;3.80;99.90;;;;;;5095127;28;20172;-84
2023/02/15 00:36:43;;;;;;;71.38;36.97;;;3.80;99.90;;;;;;5094829;28;20187;-85
2023/02/15 00:39:10;;;;;;;79.93;42.45;;;3.80;99.90;;;;;;5094990;28;20225;-84
2023/02/15 00:41:36;;;;;;;83.30;43.30;;;3.70;99.90;;;;;;5094940;28;20183;-81
2023/02/15 00:44:02;;;;;;;78.43;43.20;;;3.70;99.90;;;;;;5094678;28;20196;-85
2023/02/15 00:46:28;;;;;;;82.82;44.10;;;3.70;99.90;;;;;;5094816;28;20165;-82
2023/02/15 00:48:54;;;;;;;88.57;41.00;;;3.70;99.90;;;;;;5093436;28;20208;-85
2023/02/15 00:51:22;;;;;;;79.50;40.20;;;3.70;99.90;;;;;;5094893;28;20218;-81
2023/02/15 00:53:48;;;;;;;74.10;41.00;;;3.70;99.90;;;;;;5093397;28;20444;-84
2023/02/15 00:56:14;;;;;;;72.50;37.37;;;3.70;99.90;;;;;;5093931;28;20187;-85
2023/02/15 00:58:40;;;;;;;78.10;39.63;;;3.70;99.90;;;;;;5093180;28;20210;-84
2023/02/15 01:01:09;;;;;;;75.72;40.80;;;3.70;99.90;;;;;;5095164;28;20560;-82
2023/02/15 01:03:35;;;;;;;68.38;36.05;;;3.60;99.90;;;;;;5093128;28;20220;-85
2023/02/15 01:06:01;;;;;;;76.53;37.67;;;3.60;99.90;;;;;;5093483;28;20180;-84
2023/02/15 01:08:27;;;;;;;72.35;38.58;;;3.60;99.90;;;;;;5094364;28;20224;-82
2023/02/15 01:10:53;;;;;;;74.13;38.00;;;3.60;99.90;;;;;;5093267;28;20695;-82
2023/02/15 01:13:19;;;;;;;73.20;38.20;;;3.50;99.90;;;;;;5099846;28;20444;-82
2023/02/15 01:15:45;;;;;;;75.73;37.30;;;3.50;99.90;;;;;;5115090;28;20545;-85
2023/02/15 01:18:11;;;;;;;75.88;38.20;;;3.50;99.90;;;;;;5096282;28;20541;-85
2023/02/15 01:20:40;;;;;;;75.18;38.25;;;3.50;99.90;;;;;;5114818;28;20537;-81
2023/02/15 01:23:07;;;;;;;72.30;38.95;;;3.40;99.90;;;;;;5114484;28;20682;-84
2023/02/15 01:25:34;;;;;;;78.07;38.90;;;3.40;99.90;;;;;;5096229;28;20190;-81
2023/02/15 01:28:00;;;;;;;67.40;37.17;;;3.40;99.90;;;;;;5114316;28;20692;-85
2023/02/15 01:30:26;;;;;;;75.70;37.83;;;3.50;99.90;;;;;;5114736;28;20237;-85
2023/02/15 01:32:51;;;;;;;74.27;37.27;;;3.50;99.90;;;;;;5114566;28;20498;-81
2023/02/15 01:35:17;;;;;;;74.13;38.57;;;3.40;99.90;;;;;;5114662;28;20416;-85
2023/02/15 01:37:43;;;;;;;74.37;38.57;;;3.40;99.90;;;;;;5095979;28;20207;-85
2023/02/15 01:40:14;;;;;;;76.50;40.03;;;3.40;99.90;;;;;;5114623;28;20179;-82
2023/02/15 01:42:40;;;;;;;84.57;38.90;;;3.40;99.90;;;;;;5114220;28;20512;-85
2023/02/15 01:45:15;;;;;;;76.93;39.20;;;3.40;99.90;;;;;;5096094;28;20266;-82
2023/02/15 01:48:01;;;;;;;78.25;36.92;;;3.40;99.90;;;;;;5114104;28;20420;-84
2023/02/15 01:50:37;;;;;;;75.10;38.88;;;3.40;99.90;;;;;;5114433;28;20183;-82
2023/02/15 01:53:19;;;;;;;75.57;38.33;;;3.40;99.90;;;;;;5096149;28;20650;-82
2023/02/15 01:55:53;;;;;;;78.95;39.38;;;3.30;99.90;;;;;;5096110;28;20650;-85
2023/02/15 01:58:21;;;;;;;75.80;38.15;;;3.30;99.90;;;;;;5095849;28;20204;-82
2023/02/15 02:00:47;;;;;;;73.60;38.38;;;3.30;99.90;;;;;;5114016;28;20176;-85
2023/02/15 02:03:13;;;;;;;77.57;38.30;;;3.20;99.90;;;;;;5098049;28;20736;-82
2023/02/15 02:05:40;;;;;;;75.80;37.38;;;3.20;99.90;;;;;;5118663;28;20935;-85
2023/02/15 02:08:08;;;;;;;70.88;36.53;;;3.20;99.90;;;;;;5099912;28;20317;-84
2023/02/15 02:10:34;;;;;;;68.85;37.30;;;3.20;99.90;;;;;;5099999;28;20562;-85
2023/02/15 02:13:04;;;;;;;73.63;36.30;;;3.20;99.90;;;;;;5099550;28;20284;-85
2023/02/15 02:15:55;;;;;;;71.13;37.00;;;3.20;99.90;;;;;;5118608;28;20420;-85
2023/02/15 02:18:58;;;;;;;68.68;37.13;;;3.10;99.90;;;;;;5099808;28;20709;-84
2023/02/15 02:22:01;;;;;;;69.40;35.42;;;3.10;99.90;;;;;;5099714;28;20209;-81
2023/02/15 02:25:00;;;;;;;81.18;36.05;;;3.10;99.90;;;;;;5099668;28;20179;-85
2023/02/15 02:27:55;;;;;;;65.38;33.38;;;3.10;99.90;;;;;;5117805;28;20199;-84
2023/02/15 02:30:53;;;;;;;66.72;34.90;;;3.00;99.90;;;;;;5070510;28;20203;-82
2023/02/15 02:33:32;;;;;;;70.47;37.38;;;3.00;99.90;;;;;;5117731;28;20237;-85
2023/02/15 02:36:23;;;;;;;72.03;35.67;;;3.00;99.90;;;;;;5118105;28;20224;-85
2023/02/15 02:38:57;;;;;;;73.35;35.72;;;3.00;99.90;;;;;;5117731;28;20680;-85
2023/02/15 02:42:02;;;;;;;70.53;33.53;;;3.00;99.90;;;;;;5117636;28;20172;-85
2023/02/15 02:44:39;;;;;;;63.22;33.13;;;3.00;99.90;;;;;;5084707;28;20212;-82
2023/02/15 02:47:20;;;;;;;70.43;36.30;;;3.00;99.90;;;;;;5099205;28;20211;-80
2023/02/15 02:49:46;;;;;;;68.35;34.22;;;3.00;99.90;;;;;;5117502;28;20298;-82
2023/02/15 02:52:47;;;;;;;68.67;33.47;;;2.90;99.90;;;;;;5099016;28;20292;-85
2023/02/15 02:55:23;;;;;;;71.20;34.70;;;2.90;99.90;;;;;;5098494;28;20545;-85
2023/02/15 02:58:14;;;;;;;75.00;36.25;;;2.90;99.90;;;;;;5117316;28;20195;-86
2023/02/15 03:01:05;;;;;;;66.78;33.75;;;2.90;99.90;;;;;;5117641;28;20205;-83
2023/02/15 03:03:41;;;;;;;63.08;33.30;;;2.90;99.90;;;;;;5098981;28;20295;-81
2023/02/15 03:06:11;;;;;;;97.70;47.72;;;2.90;99.90;;;;;;5099192;28;20183;-82
2023/02/15 03:08:42;;;;;;;98.32;47.03;;;2.80;99.90;;;;;;5099023;28;20226;-82
2023/02/15 03:11:10;;;;;;;67.25;35.10;;;2.60;99.90;;;;;;5098684;28;20179;-81
2023/02/15 03:13:36;;;;;;;76.00;34.75;;;2.70;99.90;;;;;;5116341;28;20319;-85
2023/02/15 03:18:57;;;;;;;70.28;35.13;;;2.70;99.90;;;;;;5117142;28;20553;-85
2023/02/15 03:21:33;;;;;;;68.72;34.33;;;2.70;99.90;;;;;;5098607;28;20630;-82
2023/02/15 03:24:06;;;;;;;62.20;32.97;;;2.70;99.90;;;;;;5116726;28;20585;-85
2023/02/15 03:26:34;;;;;;;67.25;34.13;;;2.60;99.90;;;;;;5116734;28;20167;-82
2023/02/15 03:29:01;;;;;;;69.82;32.45;;;2.50;99.90;;;;;;5116570;28;20214;-82
2023/02/15 03:31:30;;;;;;;69.35;33.70;;;2.50;99.90;;;;;;5098361;28;20172;-85
2023/02/15 03:34:01;;;;;;;76.32;36.25;;;2.50;99.90;;;;;;5098111;28;20195;-85
2023/02/15 03:36:39;;;;;;;64.30;33.95;;;2.50;99.90;;;;;;5116580;28;20156;-86
2023/02/15 03:39:25;;;;;;;59.35;31.15;;;2.50;99.90;;;;;;5116397;28;20196;-82
2023/02/15 03:42:08;;;;;;;68.93;33.13;;;2.50;99.90;;;;;;5098175;28;20188;-85
2023/02/15 03:44:42;;;;;;;65.15;34.13;;;2.50;99.90;;;;;;5116648;28;20164;-82
2023/02/15 03:47:21;;;;;;;77.45;35.50;;;2.50;99.90;;;;;;5098780;28;20234;-85
2023/02/15 03:53:09;;;;;;;64.85;31.50;;;2.50;99.90;;;;;;5116299;28;20656;-85
2023/02/15 03:55:36;;;;;;;68.78;31.15;;;2.40;99.90;;;;;;5116532;28;20564;-83
2023/02/15 04:03:49;;;;;;;73.88;36.05;;;2.40;99.90;;;;;;5116222;28;20206;-85
2023/02/15 04:06:15;;;;;;;65.75;34.22;;;2.40;99.90;;;;;;5097931;28;20183;-82
2023/02/15 04:11:25;;;;;;;68.78;33.47;;;2.20;99.90;;;;;;5116182;28;20260;-84
2023/02/15 04:13:56;;;;;;;74.10;34.27;;;2.30;99.90;;;;;;5097503;28;20257;-85
2023/02/15 04:16:23;;;;;;;75.40;34.88;;;2.30;99.90;;;;;;5116700;28;20893;-85
2023/02/15 04:27:04;;;;;;;59.45;30.45;;;2.40;99.90;;;;;;5115306;28;20282;-81
2023/02/15 04:29:31;;;;;;;84.43;34.65;;;2.50;99.90;;;;;;5097253;28;20694;-83
2023/02/15 04:31:57;;;;;;;71.25;33.17;;;2.60;99.90;;;;;;5097452;28;20199;-82
2023/02/15 04:34:24;;;;;;;69.15;34.13;;;2.70;99.90;;;;;;5097062;28;20180;-85
2023/02/15 04:36:50;;;;;;;86.13;39.20;;;2.80;99.90;;;;;;5097042;28;20186;-81
2023/02/15 04:39:17;;;;;;;76.20;36.70;;;2.80;99.90;;;;;;5097907;28;20176;-81
2023/02/15 04:41:43;;;;;;;82.93;40.88;;;2.90;99.90;;;;;;5116253;28;20420;-81
2023/02/15 04:44:09;;;;;;;72.30;38.30;;;2.90;99.90;;;;;;5115270;28;20169;-80
2023/02/15 04:46:35;;;;;;;70.30;38.23;;;2.90;99.90;;;;;;5096971;28;20180;-81
2023/02/15 04:49:01;;;;;;;74.93;33.30;;;2.90;99.90;;;;;;5114582;28;20490;-86
2023/02/15 04:51:26;;;;;;;77.77;36.17;;;2.90;99.90;;;;;;5113830;28;20168;-84
2023/02/15 04:53:52;;;;;;;65.03;32.80;;;2.90;99.90;;;;;;5110909;28;20210;-87
2023/02/15 04:56:21;;;;;;;80.93;39.00;;;2.90;99.90;;;;;;5111631;28;20659;-81
2023/02/15 04:58:47;;;;;;;71.90;35.83;;;2.90;99.90;;;;;;5094883;28;20636;-83
2023/02/15 05:01:13;;;;;;;80.32;38.72;;;2.90;99.90;;;;;;5112439;28;20180;-87
2023/02/15 05:03:39;;;;;;;69.65;35.95;;;2.80;99.90;;;;;;5111751;28;20245;-82
2023/02/15 05:06:05;;;;;;;70.87;35.53;;;2.80;99.90;;;;;;5114008;28;20621;-84
2023/02/15 05:08:31;;;;;;;71.43;34.87;;;2.90;99.90;;;;;;5111269;28;20463;-81
2023/02/15 05:10:57;;;;;;;80.43;35.22;;;2.90;99.90;;;;;;5112240;28;20455;-81
2023/02/15 05:13:23;;;;;;;69.53;35.25;;;2.90;99.90;;;;;;5094546;28;20239;-81
2023/02/15 05:15:51;;;;;;;79.68;38.50;;;2.90;99.90;;;;;;5112991;27;20182;-86
2023/02/15 05:18:18;;;;;;;86.30;44.88;;;2.80;99.90;;;;;;5095686;28;20210;-82
2023/02/15 05:20:43;;;;;;;103.20;47.30;;;2.90;99.90;;;;;;5096385;28;20186;-82
2023/02/15 05:23:09;;;;;;;96.80;47.23;;;2.80;99.90;;;;;;5113647;28;20199;-88
2023/02/15 05:28:19;;;;;;;82.97;41.28;;;2.80;99.90;;;;;;5118362;27;20218;-87
2023/02/15 05:30:50;;;;;;;85.50;41.50;;;3.20;99.90;;;;;;5116489;27;20534;-88
2023/02/15 05:33:16;;;;;;;79.25;42.88;;;3.20;99.90;;;;;;5099972;28;20423;-83
2023/02/15 05:35:42;;;;;;;78.95;40.70;;;3.10;99.90;;;;;;5111608;28;20691;-83
2023/02/15 05:38:08;;;;;;;76.23;37.37;;;3.00;99.90;;;;;;5093551;28;20191;-88
2023/02/15 05:40:42;;;;;;;82.33;40.27;;;2.90;99.90;;;;;;5086364;28;20897;-89
2023/02/15 05:43:09;;;;;;;92.60;43.08;;;2.90;99.90;;;;;;5099200;28;20203;-84
2023/02/15 05:45:34;;;;;;;80.93;39.83;;;2.80;99.90;;;;;;5081731;28;20176;-89
2023/02/15 05:48:00;;;;;;;85.07;42.83;;;2.80;99.90;;;;;;5072670;28;20207;-89
2023/02/15 05:50:26;;;;;;;91.50;39.63;;;2.80;99.90;;;;;;5081649;28;20172;-88
2023/02/15 05:52:52;;;;;;;77.53;40.70;;;2.90;99.90;;;;;;5111897;28;20195;-87
2023/02/15 05:55:18;;;;;;;194.98;117.65;;;2.90;99.90;;;;;;5111818;28;20172;-88
2023/02/15 05:57:43;;;;;;;293.90;155.10;;;2.80;99.90;;;;;;5111617;28;20203;-87
2023/02/15 06:00:10;;;;;;;146.53;74.37;;;2.60;99.90;;;;;;5112059;28;20176;-82
2023/02/15 06:02:37;;;;;;;123.22;66.45;;;2.50;99.90;;;;;;5111639;28;20442;-87
2023/02/15 06:05:04;;;;;;;105.75;57.33;;;2.50;99.90;;;;;;5095820;28;20179;-87
2023/02/15 06:07:30;;;;;;;93.07;49.05;;;2.40;99.90;;;;;;5094673;28;20672;-82
2023/02/15 06:09:56;;;;;;;87.23;41.40;;;2.40;99.90;;;;;;5093448;28;20218;-87
2023/02/15 06:12:21;;;;;;;78.97;40.30;;;2.40;99.90;;;;;;5110635;28;20626;-87
2023/02/15 06:14:47;;;;;;;80.13;40.13;;;2.20;99.90;;;;;;5093090;28;20703;-82
2023/02/15 06:17:13;;;;;;;77.83;39.50;;;2.10;99.90;;;;;;5111077;28;20199;-83
2023/02/15 06:19:38;;;;;;;88.00;41.67;;;2.10;99.90;;;;;;5102957;28;20698;-81
2023/02/15 06:22:06;;;;;;;73.60;34.93;;;2.10;99.90;;;;;;5108209;28;20201;-81
2023/02/15 06:24:32;;;;;;;69.55;35.55;;;2.00;99.90;;;;;;5077635;28;20694;-81
2023/02/15 06:26:58;;;;;;;71.88;35.22;;;1.90;99.90;;;;;;5106207;28;20188;-86
2023/02/15 06:29:23;;;;;;;79.07;40.73;;;1.90;99.90;;;;;;5107125;28;20216;-88
2023/02/15 06:31:49;;;;;;;86.80;40.37;;;2.10;99.90;;;;;;5107901;28;20181;-87
2023/02/15 06:34:15;;;;;;;81.00;41.03;;;2.10;99.90;;;;;;5077821;28;20535;-87
2023/02/15 06:36:41;;;;;;;89.65;42.25;;;2.20;99.90;;;;;;5093122;28;20439;-87
2023/02/15 06:39:07;;;;;;;90.37;45.70;;;2.20;99.90;;;;;;5093334;28;20193;-87
2023/02/15 06:41:32;;;;;;;94.03;48.63;;;2.30;99.90;;;;;;5088424;28;21011;-82
2023/02/15 06:43:58;;;;;;;105.80;47.17;;;2.40;99.90;;;;;;5109399;28;20223;-87
2023/02/15 06:46:24;;;;;;;129.43;56.53;;;2.40;99.90;;;;;;5088869;28;20306;-83
2023/02/15 06:48:49;;;;;;;122.20;59.60;;;2.50;99.90;;;;;;5088413;28;20223;-88
2023/02/15 06:51:15;;;;;;;112.73;49.47;;;2.60;99.90;;;;;;5115279;28;20678;-87
2023/02/15 06:53:42;;;;;;;144.13;64.37;;;2.60;99.90;;;;;;5110958;28;20195;-86
2023/02/15 06:56:09;;;;;;;130.70;59.03;;;2.70;99.90;;;;;;5105035;28;20315;-87
2023/02/15 06:58:36;;;;;;;124.57;59.70;;;2.80;99.90;;;;;;5099549;28;20196;-83
2023/02/15 07:01:03;;;;;;;82.45;44.05;;;2.80;99.90;;;;;;5094426;28;20195;-82
2023/02/15 07:03:29;;;;;;;85.15;42.65;;;2.90;99.90;;;;;;5083666;28;20582;-82
2023/02/15 07:06:00;;;;;;;80.10;42.60;;;2.90;99.90;;;;;;5084223;28;20187;-87
2023/02/15 07:08:27;;;;;;;75.43;39.28;;;3.00;99.90;;;;;;5103922;28;20329;-82
2023/02/15 07:10:54;;;;;;;75.13;38.28;;;3.00;99.90;;;;;;5088570;28;20172;-87
2023/02/15 07:13:20;;;;;;;67.18;38.55;;;3.10;99.90;;;;;;5100870;28;20274;-86
2023/02/15 07:15:47;;;;;;;69.65;36.00;;;3.20;99.90;;;;;;5086710;28;20211;-87
2023/02/15 07:18:13;;;;;;;67.38;35.55;;;3.30;99.90;;;;;;5084849;28;20223;-87
2023/02/15 07:20:41;;;;;;;72.68;39.65;;;3.40;99.90;;;;;;5100731;28;20306;-86
2023/02/15 07:23:07;;;;;;;65.28;35.30;;;3.50;99.90;;;;;;5106381;28;20203;-86
2023/02/15 07:25:34;;;;;;;69.35;35.75;;;3.50;99.90;;;;;;5103930;28;20207;-87
2023/02/15 07:28:01;;;;;;;62.45;35.60;;;3.60;99.90;;;;;;5086759;28;20272;-82
2023/02/15 07:30:27;;;;;;;65.45;33.88;;;3.80;99.90;;;;;;5101337;28;20254;-82
2023/02/15 07:35:53;;;;;;;62.90;32.03;;;4.10;99.90;;;;;;5106215;28;20203;-81
2023/02/15 07:38:19;;;;;;;52.97;29.70;;;4.40;99.90;;;;;;5083096;28;20272;-82
2023/02/15 07:40:45;;;;;;;54.10;29.90;;;4.90;99.90;;;;;;5095596;28;20177;-82
2023/02/15 07:43:11;;;;;;;49.80;27.60;;;5.40;99.90;;;;;;5094872;28;20204;-86
2023/02/15 07:45:37;;;;;;;48.92;28.20;;;5.80;99.90;;;;;;5104877;28;20168;-86
2023/02/15 07:48:04;;;;;;;51.90;28.35;;;6.00;99.90;;;;;;5102660;28;20696;-82
2023/02/15 07:50:30;;;;;;;53.28;28.25;;;6.20;99.90;;;;;;5086452;28;20256;-87
2023/02/15 07:52:56;;;;;;;54.42;29.38;;;6.40;99.90;;;;;;5086069;28;20401;-85
2023/02/15 07:55:21;;;;;;;56.60;29.97;;;6.50;99.90;;;;;;5096237;28;20518;-87
2023/02/15 07:57:49;;;;;;;54.57;30.17;;;6.60;99.90;;;;;;5084144;28;20196;-87
2023/02/15 08:00:17;;;;;;;51.55;29.20;;;6.90;99.90;;;;;;5102034;28;20176;-87
2023/02/15 08:02:47;;;;;;;58.40;29.80;;;7.40;99.90;;;;;;5101762;28;20237;-87
2023/02/15 08:05:13;;;;;;;53.10;31.00;;;8.00;99.90;;;;;;5087015;28;20268;-87
2023/02/15 08:07:38;;;;;;;50.37;29.30;;;8.60;99.90;;;;;;5097386;28;20237;-80
2023/02/15 08:10:05;;;;;;;43.80;27.97;;;9.30;99.90;;;;;;5097999;28;20218;-80
2023/02/15 08:12:30;;;;;;;44.78;27.65;;;10.00;99.90;;;;;;5110951;28;20282;-81
2023/02/15 08:14:56;;;;;;;47.13;28.27;;;10.90;99.90;;;;;;5100013;28;20298;-85
2023/02/15 08:17:22;;;;;;;63.50;35.60;;;11.50;99.90;;;;;;5099844;28;20441;-82
2023/02/15 08:19:48;;;;;;;47.75;28.05;;;12.20;99.90;;;;;;5099760;28;20171;-83
2023/02/15 08:22:14;;;;;;;48.57;28.37;;;12.90;99.90;;;;;;5100602;28;20202;-84
2023/02/15 08:24:41;;;;;;;45.80;28.73;;;13.60;99.90;;;;;;5100064;28;20172;-83
2023/02/15 08:27:09;;;;;;;47.03;28.90;;;14.30;99.90;;;;;;5103749;28;20797;-88
2023/02/15 08:29:37;;;;;;;47.83;28.70;;;14.90;99.90;;;;;;5084958;28;20476;-86
2023/02/15 08:32:05;;;;;;;43.40;29.93;;;15.40;99.90;;;;;;5085884;28;20850;-84
2023/02/15 08:34:34;;;;;;;49.47;31.30;;;16.10;99.90;;;;;;5085522;28;20447;-84
2023/02/15 08:37:01;;;;;;;47.90;32.07;;;16.60;99.90;;;;;;5104568;28;20458;-87
2023/02/15 08:39:27;;;;;;;46.90;31.03;;;17.00;98.70;;;;;;5084755;28;20422;-88
2023/02/15 08:41:52;;;;;;;46.23;30.90;;;17.40;97.80;;;;;;5100101;28;20400;-83
2023/02/15 08:44:19;;;;;;;46.80;32.20;;;17.60;96.30;;;;;;5083764;28;20168;-86
2023/02/15 08:46:47;;;;;;;47.43;32.10;;;18.00;95.40;;;;;;5081926;28;20172;-86
2023/02/15 08:49:18;;;;;;;46.03;32.50;;;18.30;94.20;;;;;;5104138;28;20984;-84
2023/02/15 08:51:44;;;;;;;51.90;33.70;;;18.80;92.90;;;;;;5100514;28;21007;-85
2023/02/15 08:54:13;;;;;;;47.60;32.60;;;19.10;91.70;;;;;;5102376;28;20400;-83
2023/02/15 08:56:41;;;;;;;49.90;33.80;;;19.30;91.50;;;;;;5101641;28;20775;-83
2023/02/15 08:59:12;;;;;;;46.23;30.20;;;19.70;90.50;;;;;;5110569;28;20406;-83
2023/02/15 09:01:37;;;;;;;50.27;33.00;;;20.00;88.20;;;;;;5093736;28;20424;-83
2023/02/15 09:04:08;;;;;;;48.20;31.30;;;20.00;87.50;;;;;;5101401;28;20462;-83
2023/02/15 09:06:34;;;;;;;50.47;33.93;;;20.00;87.80;;;;;;5109703;28;20216;-84
2023/02/15 09:09:00;;;;;;;52.23;33.87;;;20.20;87.80;;;;;;5109627;28;20472;-84
2023/02/15 09:11:30;;;;;;;45.57;31.60;;;20.20;87.30;;;;;;5101807;28;20784;-84
2023/02/15 09:14:01;;;;;;;41.87;29.80;;;20.30;84.90;;;;;;5064379;28;1124714;-85
2023/02/15 09:16:29;;;;;;;47.23;33.40;;;20.20;84.10;;;;;;5088484;28;20219;-82
2023/02/15 09:18:59;;;;;;;55.63;41.40;;;20.10;84.10;;;;;;5100793;28;20970;-83
2023/02/15 09:21:25;;;;;;;44.43;31.27;;;19.90;83.90;;;;;;5107550;27;20431;-83
2023/02/15 09:23:56;;;;;;;45.30;32.23;;;19.90;84.30;;;;;;5090037;28;20464;-82
2023/02/15 09:26:23;;;;;;;39.50;30.30;;;20.00;84.10;;;;;;5109528;28;20415;-86
2023/02/15 09:28:53;;;;;;;45.57;32.40;;;20.00;85.20;;;;;;5101886;28;20566;-84
2023/02/15 09:31:21;;;;;;;43.63;30.93;;;20.20;83.60;;;;;;5110082;28;20407;-84
2023/02/15 09:33:48;;;;;;;45.57;30.83;;;20.60;83.60;;;;;;5106821;28;20431;-83
2023/02/15 09:36:19;;;;;;;45.53;29.43;;;20.70;82.60;;;;;;5080761;28;21111;-85
2023/02/15 09:38:46;;;;;;;41.23;29.17;;;20.90;83.00;;;;;;5099618;28;20455;-84
2023/02/15 09:41:48;;;;;;;41.70;29.07;;;20.80;81.00;;;;;;5099753;28;20806;-85
2023/02/15 09:44:38;;;;;;;42.50;28.90;;;20.90;82.40;;;;;;5094773;28;20422;-84
2023/02/15 09:47:06;;;;;;;42.27;29.30;;;21.00;80.80;;;;;;5084189;28;20470;-84
2023/02/15 09:49:50;;;;;;;41.07;28.80;;;21.10;81.10;;;;;;5108983;28;20569;-85
2023/02/15 09:52:29;;;;;;;41.07;28.43;;;20.70;81.30;;;;;;5111701;28;20807;-85
2023/02/15 09:55:32;;;;;;;43.30;28.93;;;20.70;81.50;;;;;;5106752;28;20431;-84
2023/02/15 09:58:05;;;;;;;41.10;29.63;;;20.60;80.60;;;;;;5078851;28;20455;-84
2023/02/15 10:00:49;;;;;;;35.70;25.33;;;20.50;80.80;;;;;;5082926;28;20448;-85
2023/02/15 10:03:39;;;;;;;40.70;28.80;;;20.70;80.60;;;;;;5086398;28;20560;-84
2023/02/15 10:06:20;;;;;;;37.77;27.07;;;20.80;79.30;;;;;;5097450;28;20513;-84
2023/02/15 10:09:17;;;;;;;38.17;27.03;;;20.80;80.30;;;;;;5092564;28;20467;-85
2023/02/15 10:11:55;;;;;;;39.20;25.50;;;20.70;79.60;;;;;;5082890;28;20512;-85
2023/02/15 10:14:37;;;;;;;35.93;26.07;;;20.40;78.90;;;;;;5099265;28;20752;-83
2023/02/15 10:17:31;;;;;;;38.50;28.57;;;20.00;80.20;;;;;;5102496;28;20507;-84
2023/02/15 10:20:34;;;;;;;41.60;27.13;;;19.30;80.70;;;;;;5086189;28;20489;-83
2023/02/15 10:23:20;;;;;;;36.87;25.73;;;18.50;81.80;;;;;;5106852;28;20449;-85
2023/02/15 10:26:23;;;;;;;40.10;26.20;;;17.90;83.30;;;;;;5092736;28;21212;-84
2023/02/15 10:28:49;;;;;;;35.03;25.07;;;17.30;84.50;;;;;;5052884;28;20479;-84
2023/02/15 10:31:38;;;;;;;42.07;28.53;;;17.00;84.60;;;;;;5082113;28;21002;-85
2023/02/15 10:34:36;;;;;;;35.97;26.47;;;16.70;86.70;;;;;;5072229;28;20642;-85
2023/02/15 10:37:17;;;;;;;38.70;25.60;;;16.20;86.40;;;;;;5105886;28;20668;-85
2023/02/15 10:39:45;;;;;;;38.63;25.83;;;16.00;88.00;;;;;;5106915;28;20629;-84
2023/02/15 10:42:37;;;;;;;40.83;25.60;;;15.90;87.80;;;;;;5091613;28;20459;-85
2023/02/15 10:45:11;;;;;;;35.60;25.90;;;15.70;88.70;;;;;;5078046;28;20467;-84
2023/02/15 10:47:49;;;;;;;32.60;23.80;;;15.70;89.50;;;;;;5094920;28;20447;-85
2023/02/15 10:50:29;;;;;;;35.97;23.90;;;15.50;87.90;;;;;;5088997;28;20482;-85
2023/02/15 10:53:29;;;;;;;37.30;24.00;;;15.40;88.70;;;;;;5095193;28;20466;-85
2023/02/15 10:56:28;;;;;;;34.90;25.10;;;15.00;89.40;;;;;;5091603;28;20447;-85
2023/02/15 10:59:18;;;;;;;37.50;23.30;;;14.70;90.20;;;;;;5110663;28;20462;-85
2023/02/15 11:01:53;;;;;;;35.00;23.90;;;14.80;90.30;;;;;;5088513;28;20531;-86
2023/02/15 11:04:55;;;;;;;39.63;23.67;;;15.00;90.20;;;;;;5090719;28;20431;-85
2023/02/15 11:07:33;;;;;;;36.43;24.03;;;14.90;90.30;;;;;;5086054;28;20551;-85
2023/02/15 11:10:28;;;;;;;34.07;23.83;;;14.90;90.80;;;;;;5105740;28;20981;-85
2023/02/15 11:12:56;;;;;;;40.17;24.90;;;15.00;90.80;;;;;;5099460;28;20451;-85
2023/02/15 11:16:04;;;;;;;37.97;23.20;;;15.10;90.70;;;;;;5090270;28;20984;-82
2023/02/15 11:18:33;;;;;;;35.60;22.93;;;15.10;90.80;;;;;;5078744;28;20598;-83
2023/02/15 11:21:11;;;;;;;33.93;21.50;;;15.20;90.30;;;;;;5077168;28;20524;-82
2023/02/15 11:23:44;;;;;;;36.00;24.77;;;15.10;90.70;;;;;;5089906;28;20467;-83
2023/02/15 11:26:32;;;;;;;34.20;22.00;;;15.10;90.40;;;;;;5076278;28;20432;-83
2023/02/15 11:29:21;;;;;;;40.03;24.00;;;15.00;90.30;;;;;;5075184;28;20912;-82
2023/02/15 11:31:52;;;;;;;36.00;24.03;;;14.70;90.30;;;;;;5092843;28;20432;-83
2023/02/15 11:34:38;;;;;;;32.43;22.60;;;14.70;90.90;;;;;;5100923;28;20784;-82
2023/02/15 11:37:19;;;;;;;35.27;24.17;;;14.80;91.10;;;;;;5095401;28;20444;-83
2023/02/15 11:39:51;;;;;;;33.93;21.67;;;15.00;91.00;;;;;;5112774;28;20468;-81
2023/02/15 11:42:22;;;;;;;32.53;22.00;;;15.00;90.20;;;;;;5091591;28;20469;-85
2023/02/15 11:45:07;;;;;;;31.67;22.13;;;15.00;90.20;;;;;;5102152;28;20488;-85
2023/02/15 11:47:32;;;;;;;31.30;21.30;;;14.90;90.30;;;;;;5087770;28;21015;-85
2023/02/15 11:49:59;;;;;;;39.17;27.67;;;15.00;90.80;;;;;;5103927;28;20484;-85
2023/02/15 11:52:25;;;;;;;34.07;22.07;;;15.00;90.30;;;;;;5104852;28;20196;-85
2023/02/15 11:54:52;;;;;;;32.43;21.73;;;15.10;90.00;;;;;;5106234;28;20760;-83
2023/02/15 11:57:40;;;;;;;30.40;20.43;;;15.10;89.60;;;;;;5103008;28;20232;-83
2023/02/15 12:00:36;;;;;;;31.67;21.07;;;15.00;90.20;;;;;;5086488;28;20470;-82
2023/02/15 12:03:09;;;;;;;35.87;21.20;;;14.90;90.10;;;;;;5076823;28;20492;-84
2023/02/15 12:05:39;;;;;;;28.30;19.60;;;14.90;90.20;;;;;;5081272;28;20526;-83
2023/02/15 12:08:18;;;;;;;30.17;20.70;;;14.90;90.20;;;;;;5096837;28;20554;-83
2023/02/15 12:11:07;;;;;;;29.13;20.23;;;15.00;90.60;;;;;;5099444;28;20928;-84
2023/02/15 12:13:33;;;;;;;71.97;35.60;;;15.00;90.50;;;;;;5095693;28;20480;-82
2023/02/15 12:16:05;;;;;;;27.87;19.77;;;15.00;90.50;;;;;;5087927;28;20432;-84
2023/02/15 12:18:44;;;;;;;35.30;22.93;;;15.10;90.50;;;;;;5084312;28;20448;-83
2023/02/15 12:21:24;;;;;;;30.87;21.20;;;15.10;90.10;;;;;;5089792;28;20491;-83
2023/02/15 12:24:24;;;;;;;37.13;23.33;;;15.00;90.20;;;;;;5091217;28;20451;-83
2023/02/15 12:27:05;;;;;;;34.20;22.17;;;14.70;90.80;;;;;;5100987;28;20450;-83
2023/02/15 12:29:39;;;;;;;32.13;20.67;;;14.70;90.80;;;;;;5085449;28;20498;-83
2023/02/15 12:32:09;;;;;;;31.60;20.63;;;14.70;90.90;;;;;;5098140;28;20930;-84
2023/02/15 12:34:39;;;;;;;27.67;18.67;;;14.80;90.80;;;;;;5104789;28;20788;-83
2023/02/15 12:37:16;;;;;;;29.83;20.87;;;14.90;91.00;;;;;;5089909;28;20996;-82
2023/02/15 12:39:55;;;;;;;29.90;20.37;;;15.00;90.30;;;;;;5098747;28;20535;-82
2023/02/15 12:42:21;;;;;;;30.90;21.60;;;15.00;90.20;;;;;;5102242;28;20482;-83
2023/02/15 12:45:27;;;;;;;30.97;18.90;;;15.00;90.40;;;;;;5103733;28;20448;-83
2023/02/15 12:48:12;;;;;;;25.50;18.33;;;15.10;90.20;;;;;;5083109;28;20535;-82
2023/02/15 12:50:43;;;;;;;31.67;20.10;;;15.10;90.50;;;;;;5099557;28;20455;-84
2023/02/15 12:53:23;;;;;;;29.93;20.43;;;15.00;90.10;;;;;;5090362;27;20975;-84
2023/02/15 12:56:07;;;;;;;29.63;19.67;;;15.00;90.00;;;;;;5099901;28;20471;-85
2023/02/15 12:58:34;;;;;;;27.63;18.57;;;15.00;90.30;;;;;;5081891;28;20448;-84
2023/02/15 13:01:10;;;;;;;33.50;21.97;;;14.90;91.30;;;;;;5102470;28;20441;-83
2023/02/15 13:03:49;;;;;;;29.53;18.60;;;15.00;91.90;;;;;;5081516;28;20853;-84
2023/02/15 13:06:17;;;;;;;26.43;17.93;;;15.00;92.00;;;;;;5089547;28;20431;-85
2023/02/15 13:08:49;;;;;;;35.20;21.87;;;15.10;92.20;;;;;;5083003;27;20593;-84
2023/02/15 13:11:33;;;;;;;32.83;22.30;;;15.20;92.00;;;;;;5082742;28;20539;-84
2023/02/15 13:14:03;;;;;;;26.03;19.17;;;15.30;91.40;;;;;;5098828;28;20480;-84
2023/02/15 13:16:36;;;;;;;30.20;20.27;;;15.30;92.10;;;;;;5095079;28;20499;-85
2023/02/15 13:19:18;;;;;;;25.30;18.13;;;15.20;92.60;;;;;;5099596;28;20444;-85
2023/02/15 13:21:47;;;;;;;27.80;17.87;;;15.30;92.20;;;;;;5080180;28;20421;-85
2023/02/15 13:24:12;;;;;;;26.77;16.77;;;15.40;91.70;;;;;;5094674;28;20945;-84
2023/02/15 13:26:44;;;;;;;27.70;20.60;;;15.50;91.30;;;;;;5102056;28;20512;-83